createdAt,value
2023-07-12T00:01:17.273Z,5.20
2023-07-12T00:03:46.471Z,4.40
2023-07-12T00:06:15.825Z,3.93
2023-07-12T00:08:43.684Z,3.77
2023-07-12T00:11:17.826Z,5.33
2023-07-12T00:13:45.829Z,4.10
2023-07-12T00:16:21.150Z,4.00
2023-07-12T00:18:50.754Z,4.27
2023-07-12T00:21:24.546Z,3.50
2023-07-12T00:23:53.909Z,3.90
2023-07-12T00:26:23.330Z,3.40
2023-07-12T00:28:51.004Z,3.60
2023-07-12T00:31:18.734Z,3.53
2023-07-12T00:33:46.552Z,3.53
2023-07-12T00:36:19.349Z,4.50
2023-07-12T00:38:47.083Z,3.97
2023-07-12T00:41:24.889Z,3.70
2023-07-12T00:43:58.483Z,3.60
2023-07-12T00:46:33.059Z,3.73
2023-07-12T00:49:01.396Z,3.60
2023-07-12T00:51:46.078Z,4.40
2023-07-12T00:54:16.308Z,4.00
2023-07-12T00:56:45.494Z,3.47
2023-07-12T00:59:17.094Z,3.53
2023-07-12T01:01:46.486Z,3.90
2023-07-12T01:04:18.665Z,3.97
2023-07-12T01:06:50.730Z,4.40
2023-07-12T01:09:19.461Z,3.53
2023-07-12T01:11:48.585Z,3.60
2023-07-12T01:14:18.428Z,3.10
2023-07-12T01:16:51.164Z,3.40
2023-07-12T01:19:19.322Z,3.17
2023-07-12T01:21:50.562Z,3.60
2023-07-12T01:24:18.810Z,3.47
2023-07-12T01:26:48.834Z,3.83
2023-07-12T01:29:17.198Z,3.83
2023-07-12T01:31:46.805Z,3.90
2023-07-12T01:34:15.234Z,3.50
2023-07-12T01:36:42.972Z,3.40
2023-07-12T01:39:12.798Z,4.00
2023-07-12T01:41:41.119Z,3.70
2023-07-12T01:44:09.627Z,3.50
2023-07-12T01:46:37.517Z,3.83
2023-07-12T01:49:05.920Z,3.97
2023-07-12T01:51:35.000Z,3.53
2023-07-12T01:54:02.934Z,4.73
2023-07-12T01:56:32.026Z,3.70
2023-07-12T01:58:59.828Z,3.60
2023-07-12T02:01:27.656Z,3.30
2023-07-12T02:03:55.638Z,3.97
2023-07-12T02:06:23.412Z,3.87
2023-07-12T02:08:51.175Z,3.60
2023-07-12T02:11:19.239Z,4.20
2023-07-12T02:13:48.339Z,4.20
2023-07-12T02:16:16.084Z,3.57
2023-07-12T02:18:43.800Z,3.80
2023-07-12T02:21:11.664Z,3.97
2023-07-12T02:23:39.661Z,3.77
2023-07-12T02:26:07.342Z,4.30
2023-07-12T02:28:35.059Z,4.40
2023-07-12T02:31:23.135Z,3.60
2023-07-12T02:33:50.990Z,4.10
2023-07-12T02:36:19.492Z,3.97
2023-07-12T02:38:48.307Z,4.30
2023-07-12T02:41:17.144Z,3.97
2023-07-12T02:43:45.518Z,4.03
2023-07-12T02:46:13.295Z,3.77
2023-07-12T02:48:42.432Z,4.20
2023-07-12T02:51:10.584Z,4.50
2023-07-12T02:53:40.382Z,4.87
2023-07-12T02:56:09.092Z,3.87
2023-07-12T02:58:36.808Z,4.60
2023-07-12T03:01:05.222Z,4.17
2023-07-12T03:03:33.097Z,4.73
2023-07-12T03:06:06.028Z,4.30
2023-07-12T03:08:33.838Z,4.57
2023-07-12T03:11:02.233Z,4.17
2023-07-12T03:13:30.102Z,3.80
2023-07-12T03:15:57.838Z,4.47
2023-07-12T03:18:25.606Z,4.20
2023-07-12T03:20:53.333Z,4.70
2023-07-12T03:23:22.415Z,4.90
2023-07-12T03:25:50.138Z,4.47
2023-07-12T03:28:17.809Z,4.30
2023-07-12T03:30:45.583Z,4.80
2023-07-12T03:33:13.404Z,5.07
2023-07-12T03:35:41.092Z,5.33
2023-07-12T03:38:08.766Z,4.10
2023-07-12T03:40:37.807Z,4.90
2023-07-12T03:43:05.627Z,5.30
2023-07-12T03:45:33.312Z,4.80
2023-07-12T03:48:01.049Z,5.20
2023-07-12T03:50:28.811Z,5.07
2023-07-12T03:52:56.532Z,4.67
2023-07-12T03:55:24.357Z,4.10
2023-07-12T03:57:53.437Z,4.57
2023-07-12T04:00:21.305Z,5.87
2023-07-12T04:02:49.101Z,5.00
2023-07-12T04:05:17.173Z,4.73
2023-07-12T04:07:45.078Z,4.90
2023-07-12T04:10:12.996Z,4.67
2023-07-12T04:12:41.103Z,5.30
2023-07-12T04:15:10.901Z,4.67
2023-07-12T04:17:38.813Z,4.90
2023-07-12T04:20:08.042Z,5.00
2023-07-12T04:22:35.706Z,4.50
2023-07-12T04:25:04.078Z,5.03
2023-07-12T04:27:31.841Z,4.17
2023-07-12T04:29:59.570Z,5.20
2023-07-12T04:32:28.661Z,5.00
2023-07-12T04:34:56.390Z,4.80
2023-07-12T04:37:24.408Z,4.80
2023-07-12T04:39:52.401Z,4.83
2023-07-12T04:42:21.834Z,4.70
2023-07-12T04:44:50.966Z,4.53
2023-07-12T04:47:19.223Z,4.10
2023-07-12T04:49:48.366Z,5.67
2023-07-12T04:52:16.060Z,4.93
2023-07-12T04:54:45.394Z,5.67
2023-07-12T04:57:13.180Z,5.13
2023-07-12T04:59:41.081Z,5.10
2023-07-12T05:02:08.873Z,5.53
2023-07-12T05:04:36.652Z,5.37
2023-07-12T05:07:10.633Z,4.97
2023-07-12T05:09:39.225Z,4.87
2023-07-12T05:12:08.302Z,4.97
2023-07-12T05:14:36.131Z,5.10
2023-07-12T05:17:04.845Z,4.40
2023-07-12T05:19:32.687Z,6.10
2023-07-12T05:22:00.508Z,4.90
2023-07-12T05:24:29.694Z,6.10
2023-07-12T05:26:59.424Z,5.20
2023-07-12T05:29:27.784Z,6.00
2023-07-12T05:31:55.711Z,5.47
2023-07-12T05:34:23.478Z,5.53
2023-07-12T05:36:51.218Z,6.00
2023-07-12T05:39:18.976Z,5.67
2023-07-12T05:41:48.126Z,6.40
2023-07-12T05:44:15.820Z,6.80
2023-07-12T05:46:44.372Z,6.07
2023-07-12T05:49:12.198Z,5.83
2023-07-12T05:51:39.976Z,6.10
2023-07-12T05:54:07.784Z,5.77
2023-07-12T05:56:35.710Z,6.27
2023-07-12T05:59:04.862Z,5.30
2023-07-12T06:01:33.012Z,6.03
2023-07-12T06:04:00.927Z,5.60
2023-07-12T06:06:29.877Z,7.90
2023-07-12T06:08:57.649Z,6.80
2023-07-12T06:11:27.312Z,7.00
2023-07-12T06:13:56.023Z,6.90
2023-07-12T06:16:25.325Z,6.80
2023-07-12T06:18:53.160Z,6.77
2023-07-12T06:21:21.012Z,6.47
2023-07-12T06:23:49.353Z,6.17
2023-07-12T06:26:17.258Z,7.00
2023-07-12T06:28:45.086Z,7.03
2023-07-12T06:31:13.417Z,6.47
2023-07-12T06:33:44.168Z,7.47
2023-07-12T06:36:11.877Z,6.60
2023-07-12T06:38:39.898Z,7.47
2023-07-12T06:41:08.063Z,6.50
2023-07-12T06:43:36.055Z,6.23
2023-07-12T06:46:04.878Z,6.30
2023-07-12T06:48:32.692Z,5.80
2023-07-12T06:51:01.929Z,6.90
2023-07-12T06:53:29.669Z,5.90
2023-07-12T06:55:57.450Z,6.00
2023-07-12T06:58:25.703Z,6.63
2023-07-12T07:00:53.622Z,6.73
2023-07-12T07:03:21.410Z,6.57
2023-07-12T07:05:50.046Z,6.40
2023-07-12T07:08:21.149Z,5.50
2023-07-12T07:10:52.286Z,5.87
2023-07-12T07:13:20.397Z,5.47
2023-07-12T07:15:48.169Z,5.40
2023-07-12T07:18:16.406Z,5.60
2023-07-12T07:20:45.759Z,6.23
2023-07-12T07:23:14.300Z,6.27
2023-07-12T07:25:43.978Z,5.93
2023-07-12T07:28:12.189Z,5.30
2023-07-12T07:30:40.239Z,6.20
2023-07-12T07:33:08.680Z,5.43
2023-07-12T07:35:36.917Z,6.27
2023-07-12T07:38:04.693Z,5.77
2023-07-12T07:40:32.549Z,5.30
2023-07-12T07:43:01.665Z,5.60
2023-07-12T07:45:29.598Z,5.90
2023-07-12T07:47:57.403Z,6.00
2023-07-12T07:50:25.256Z,5.17
2023-07-12T07:52:54.314Z,5.10
2023-07-12T07:55:22.456Z,4.97
2023-07-12T07:57:50.814Z,5.03
2023-07-12T08:00:20.482Z,5.47
2023-07-12T08:02:49.038Z,4.80
2023-07-12T08:05:16.969Z,4.80
2023-07-12T08:07:47.579Z,5.20
2023-07-12T08:10:18.878Z,5.37
2023-07-12T08:12:47.292Z,5.70
2023-07-12T08:15:15.220Z,5.80
2023-07-12T08:17:44.538Z,5.93
2023-07-12T08:20:13.209Z,4.80
2023-07-12T08:22:41.006Z,6.17
2023-07-12T08:25:09.612Z,5.37
2023-07-12T08:27:37.401Z,4.83
2023-07-12T08:30:06.320Z,5.20
2023-07-12T08:32:35.633Z,5.13
2023-07-12T08:35:05.622Z,4.90
2023-07-12T08:37:33.364Z,4.53
2023-07-12T08:40:01.767Z,5.03
2023-07-12T08:42:36.929Z,4.23
2023-07-12T08:45:20.960Z,4.77
2023-07-12T08:47:50.665Z,4.70
2023-07-12T08:50:20.331Z,4.80
2023-07-12T08:52:48.244Z,4.63
2023-07-12T08:55:19.788Z,4.40
2023-07-12T08:57:52.667Z,4.73
2023-07-12T09:00:22.592Z,5.07
2023-07-12T09:02:50.926Z,4.50
2023-07-12T09:05:22.056Z,4.93
2023-07-12T09:07:56.298Z,4.90
2023-07-12T09:10:35.714Z,5.10
2023-07-12T09:13:04.143Z,4.10
2023-07-12T09:15:41.308Z,4.57
2023-07-12T09:18:10.837Z,3.80
2023-07-12T09:20:42.569Z,5.03
2023-07-12T09:23:14.782Z,4.30
2023-07-12T09:25:45.343Z,4.50
2023-07-12T09:28:14.931Z,4.13
2023-07-12T09:30:43.336Z,4.93
2023-07-12T09:33:20.493Z,3.57
2023-07-12T09:35:51.123Z,4.50
2023-07-12T09:38:23.843Z,4.80
2023-07-12T09:40:53.651Z,3.17
2023-07-12T09:43:23.597Z,3.97
2023-07-12T09:46:11.408Z,4.20
2023-07-12T09:48:45.372Z,4.40
2023-07-12T09:51:30.013Z,4.30
2023-07-12T09:54:02.074Z,3.87
2023-07-12T09:56:39.150Z,5.37
2023-07-12T09:59:14.078Z,4.40
2023-07-12T10:01:54.272Z,4.53
2023-07-12T10:04:37.044Z,3.57
2023-07-12T10:07:16.955Z,3.73
2023-07-12T10:09:48.868Z,4.67
2023-07-12T10:12:25.014Z,3.70
2023-07-12T10:14:54.826Z,3.87
2023-07-12T10:17:30.322Z,3.50
2023-07-12T10:19:58.245Z,4.00
2023-07-12T10:22:32.317Z,4.27
2023-07-12T10:25:01.417Z,4.20
2023-07-12T10:27:33.951Z,4.30
2023-07-12T10:30:05.483Z,3.53
2023-07-12T10:32:39.317Z,4.10
2023-07-12T10:35:18.918Z,3.70
2023-07-12T10:37:52.211Z,4.20
2023-07-12T10:40:26.977Z,4.30
2023-07-12T10:42:59.838Z,4.10
2023-07-12T10:45:31.522Z,4.43
2023-07-12T10:48:00.659Z,3.90
2023-07-12T10:50:35.141Z,4.17
2023-07-12T10:53:24.529Z,5.17
2023-07-12T10:56:18.215Z,4.20
2023-07-12T10:58:51.618Z,4.73
2023-07-12T11:01:39.493Z,4.40
2023-07-12T11:04:09.277Z,4.10
2023-07-12T11:06:37.642Z,4.83
2023-07-12T11:09:11.261Z,5.03
2023-07-12T11:11:47.082Z,5.30
2023-07-12T11:14:21.466Z,4.30
2023-07-12T11:17:05.662Z,5.03
2023-07-12T11:19:45.638Z,4.77
2023-07-12T11:22:18.657Z,4.40
2023-07-12T11:25:00.221Z,4.60
2023-07-12T11:27:54.506Z,3.90
2023-07-12T11:30:28.010Z,4.70
2023-07-12T11:33:02.098Z,4.30
2023-07-12T11:35:44.454Z,3.23
2023-07-12T11:38:18.973Z,5.00
2023-07-12T11:40:52.886Z,4.57
2023-07-12T11:43:33.602Z,4.63
2023-07-12T11:46:01.893Z,5.27
2023-07-12T11:48:33.361Z,4.70
2023-07-12T11:51:05.937Z,4.70
2023-07-12T11:53:33.732Z,4.83
2023-07-12T11:56:02.754Z,4.80
2023-07-12T11:58:34.024Z,3.80
2023-07-12T12:01:03.379Z,5.07
2023-07-12T12:03:31.189Z,5.33
2023-07-12T12:06:00.592Z,5.10
2023-07-12T12:08:31.816Z,4.53
2023-07-12T12:10:59.818Z,5.00
2023-07-12T12:13:32.022Z,4.37
2023-07-12T12:16:06.287Z,4.40
2023-07-12T12:18:35.911Z,4.57
2023-07-12T12:21:06.537Z,5.53
2023-07-12T12:23:38.379Z,4.27
2023-07-12T12:26:20.699Z,4.30
2023-07-12T12:28:57.171Z,5.13
2023-07-12T12:31:26.418Z,5.00
2023-07-12T12:34:04.071Z,5.10
2023-07-12T12:36:34.321Z,4.70
2023-07-12T12:39:06.747Z,4.27
2023-07-12T12:41:39.986Z,5.20
2023-07-12T12:44:16.714Z,5.50
2023-07-12T12:54:24.604Z,4.70
2023-07-12T13:07:02.363Z,6.80
2023-07-12T13:19:47.106Z,7.57
2023-07-12T13:22:18.019Z,6.60
2023-07-12T13:24:46.579Z,6.80
2023-07-12T13:27:29.028Z,5.90
2023-07-12T13:29:58.568Z,6.37
2023-07-12T13:32:26.665Z,7.20
2023-07-12T13:37:43.096Z,7.87
2023-07-12T13:42:57.761Z,5.93
2023-07-12T13:45:28.769Z,7.60
2023-07-12T13:47:57.692Z,8.20
2023-07-12T13:50:25.659Z,7.77
2023-07-12T13:52:53.648Z,8.13
2023-07-12T13:55:21.964Z,6.83
2023-07-12T13:57:49.838Z,7.47
2023-07-12T14:08:35.873Z,6.77
2023-07-12T14:10:44.628Z,7.97
2023-07-12T14:13:21.539Z,7.00
2023-07-12T14:15:50.649Z,7.80
2023-07-12T14:18:20.058Z,5.63
2023-07-12T14:20:49.564Z,7.50
2023-07-12T14:23:22.220Z,6.10
2023-07-12T14:25:50.183Z,6.53
2023-07-12T14:28:18.141Z,7.20
2023-07-12T14:30:47.935Z,6.50
2023-07-12T14:33:40.601Z,7.60
2023-07-12T14:36:08.845Z,7.50
2023-07-12T14:38:36.963Z,8.77
2023-07-12T14:41:07.951Z,4.80
2023-07-12T14:43:35.924Z,5.30
2023-07-12T14:46:03.873Z,4.90
2023-07-12T14:48:33.292Z,6.07
2023-07-12T14:51:01.272Z,5.70
2023-07-12T14:53:29.264Z,5.50
2023-07-12T14:55:57.056Z,6.00
2023-07-12T14:58:25.081Z,5.47
2023-07-12T15:00:53.181Z,4.73
2023-07-12T15:03:23.813Z,3.93
2023-07-12T15:05:53.159Z,3.87
2023-07-12T15:08:32.812Z,4.13
2023-07-12T15:11:02.727Z,4.50
2023-07-12T15:13:31.043Z,4.20
2023-07-12T15:15:59.006Z,3.80
2023-07-12T15:18:27.863Z,4.43
2023-07-12T15:21:00.967Z,3.70
2023-07-12T15:23:33.547Z,4.27
2023-07-12T15:26:01.937Z,4.00
2023-07-12T15:28:32.715Z,3.63
2023-07-12T15:31:00.739Z,3.77
2023-07-12T15:33:30.506Z,4.07
2023-07-12T15:36:03.926Z,3.60
2023-07-12T15:38:32.695Z,4.13
2023-07-12T15:41:03.014Z,4.13
2023-07-12T15:43:34.107Z,4.20
2023-07-12T15:46:03.214Z,4.37
2023-07-12T15:48:33.152Z,3.90
2023-07-12T15:51:09.872Z,3.50
2023-07-12T15:53:38.003Z,3.80
2023-07-12T15:56:05.879Z,3.80
2023-07-12T15:58:35.009Z,3.43
2023-07-12T16:01:05.387Z,3.90
2023-07-12T16:03:37.281Z,3.73
2023-07-12T16:06:09.423Z,3.37
2023-07-12T16:08:37.985Z,3.87
2023-07-12T16:11:18.026Z,4.17
2023-07-12T16:13:59.244Z,3.63
2023-07-12T16:16:30.606Z,4.17
2023-07-12T16:18:58.717Z,3.77
2023-07-12T16:21:29.975Z,3.63
2023-07-12T16:23:59.543Z,4.10
2023-07-12T16:26:30.682Z,3.70
2023-07-12T16:28:59.317Z,3.50
2023-07-12T16:31:33.484Z,3.77
2023-07-12T16:34:02.244Z,3.77
2023-07-12T16:36:32.906Z,3.73
2023-07-12T16:39:00.834Z,3.30
2023-07-12T16:41:30.695Z,3.90
2023-07-12T16:43:59.698Z,4.00
2023-07-12T16:46:33.903Z,3.53
2023-07-12T16:49:01.764Z,3.57
2023-07-12T16:51:32.870Z,3.53
2023-07-12T16:54:01.286Z,3.60
2023-07-12T16:56:30.766Z,3.30
2023-07-12T16:58:58.512Z,3.40
2023-07-12T17:01:30.452Z,3.90
2023-07-12T17:04:01.764Z,3.30
2023-07-12T17:06:38.576Z,3.60
2023-07-12T17:09:19.523Z,3.20
2023-07-12T17:11:54.218Z,3.10
2023-07-12T17:14:41.574Z,2.70
2023-07-12T17:17:15.628Z,3.00
2023-07-12T17:19:46.817Z,3.10
2023-07-12T17:22:20.071Z,3.03
2023-07-12T17:24:53.078Z,3.13
2023-07-12T17:27:23.399Z,3.30
2023-07-12T17:29:52.077Z,3.00
2023-07-12T17:32:27.678Z,2.77
2023-07-12T17:34:59.283Z,2.80
2023-07-12T17:37:33.724Z,3.40
2023-07-12T17:40:09.060Z,2.77
2023-07-12T17:42:39.079Z,3.20
2023-07-12T17:45:20.124Z,3.07
2023-07-12T17:47:49.102Z,3.10
2023-07-12T17:50:18.158Z,2.87
2023-07-12T17:52:49.506Z,3.50
2023-07-12T17:55:19.799Z,3.40
2023-07-12T17:57:51.543Z,3.10
2023-07-12T18:00:24.353Z,2.93
2023-07-12T18:03:00.544Z,3.13
2023-07-12T18:05:31.429Z,3.20
2023-07-12T18:08:05.065Z,2.90
2023-07-12T18:10:33.545Z,2.60
2023-07-12T18:13:03.743Z,2.97
2023-07-12T18:15:33.714Z,3.00
2023-07-12T18:18:06.842Z,2.60
2023-07-12T18:20:37.648Z,2.77
2023-07-12T18:23:16.762Z,2.43
2023-07-12T18:25:47.439Z,2.60
2023-07-12T18:28:23.564Z,2.43
2023-07-12T18:30:54.229Z,2.33
2023-07-12T18:33:25.962Z,2.50
2023-07-12T18:35:56.679Z,2.30
2023-07-12T18:38:27.171Z,2.83
2023-07-12T18:40:55.523Z,2.40
2023-07-12T18:43:27.174Z,3.13
2023-07-12T18:48:48.902Z,2.70
2023-07-12T18:51:25.735Z,2.10
2023-07-12T18:53:56.058Z,2.50
2023-07-12T18:56:26.691Z,2.30
2023-07-12T18:58:56.846Z,2.37
2023-07-12T19:07:09.968Z,2.43
2023-07-12T19:09:41.707Z,2.50
2023-07-12T19:12:15.068Z,2.20
2023-07-12T19:15:00.214Z,2.50
2023-07-12T19:23:31.580Z,2.30
2023-07-12T19:26:09.532Z,2.70
2023-07-12T19:28:42.017Z,2.37
2023-07-12T19:31:21.543Z,2.50
2023-07-12T19:33:57.458Z,2.67
2023-07-12T19:36:35.785Z,2.40
2023-07-12T19:43:00.004Z,2.00
2023-07-12T19:45:31.884Z,2.57
2023-07-12T19:48:00.719Z,2.20
2023-07-12T19:50:34.128Z,2.80
2023-07-12T19:56:08.613Z,2.03
2023-07-12T20:02:18.477Z,2.10
2023-07-12T20:11:20.826Z,2.30
2023-07-12T20:14:44.703Z,2.10
2023-07-12T20:17:15.808Z,2.70
2023-07-12T20:19:43.936Z,2.17
2023-07-12T20:22:29.352Z,1.90
2023-07-12T20:25:06.273Z,2.30
2023-07-12T20:27:34.628Z,2.90
2023-07-12T20:30:10.745Z,2.30
2023-07-12T20:32:43.932Z,2.20
2023-07-12T20:35:16.151Z,2.93
2023-07-12T20:37:44.474Z,2.47
2023-07-12T20:40:14.471Z,2.60
2023-07-12T20:42:44.188Z,2.10
2023-07-12T20:45:19.253Z,2.30
2023-07-12T20:47:56.526Z,2.60
2023-07-12T20:50:39.452Z,2.13
2023-07-12T20:53:10.170Z,2.30
2023-07-12T20:58:31.236Z,2.90
2023-07-12T21:01:10.743Z,2.50
2023-07-12T21:03:57.069Z,2.30
2023-07-12T21:06:28.499Z,2.30
2023-07-12T21:09:00.893Z,2.60
2023-07-12T21:11:31.560Z,2.30
2023-07-12T21:14:00.990Z,2.63
2023-07-12T21:16:30.774Z,2.60
2023-07-12T21:19:08.598Z,2.50
2023-07-12T21:21:41.318Z,2.60
2023-07-12T21:24:15.241Z,2.37
2023-07-12T21:26:43.518Z,2.90
2023-07-12T21:29:12.377Z,2.70
2023-07-12T21:31:44.334Z,2.37
2023-07-12T21:34:18.802Z,2.93
2023-07-12T21:36:49.264Z,3.47
2023-07-12T21:39:24.179Z,2.50
2023-07-12T21:41:56.039Z,2.77
2023-07-12T21:44:24.255Z,2.40
2023-07-12T21:46:55.533Z,2.57
2023-07-12T21:49:26.838Z,2.90
2023-07-12T21:51:55.276Z,2.60
2023-07-12T21:54:25.627Z,2.73
2023-07-12T21:56:54.858Z,2.67
2023-07-12T21:59:29.619Z,2.40
2023-07-12T22:01:59.184Z,1.90
2023-07-12T22:04:29.730Z,2.43
2023-07-12T22:06:58.254Z,2.43
2023-07-12T22:09:49.529Z,2.50
2023-07-12T22:12:20.673Z,2.30
2023-07-12T22:15:04.569Z,2.20
2023-07-12T22:17:33.052Z,2.87
2023-07-12T22:20:12.351Z,2.73
2023-07-12T22:22:44.863Z,2.60
2023-07-12T22:25:15.400Z,2.47
2023-07-12T22:27:45.256Z,2.50
2023-07-12T22:30:24.974Z,2.00
2023-07-12T22:36:07.975Z,2.30
2023-07-12T22:38:37.063Z,2.47
2023-07-12T22:41:11.190Z,2.57
2023-07-12T22:43:43.237Z,3.07
2023-07-12T22:46:13.621Z,2.10
2023-07-12T22:48:43.808Z,2.47
2023-07-12T22:51:14.103Z,2.00
2023-07-12T22:53:45.383Z,2.10
2023-07-12T22:56:23.627Z,2.00
2023-07-12T22:58:55.760Z,2.37
2023-07-12T23:01:28.472Z,2.07
2023-07-12T23:03:57.201Z,2.47
2023-07-12T23:06:28.105Z,2.23
2023-07-12T23:08:59.609Z,2.20
2023-07-12T23:11:34.804Z,2.70
2023-07-12T23:14:05.302Z,2.20
2023-07-12T23:16:35.870Z,2.10
2023-07-12T23:19:09.436Z,1.97
2023-07-12T23:21:40.050Z,2.10
2023-07-12T23:24:09.565Z,2.03
2023-07-12T23:26:39.067Z,2.23
2023-07-12T23:29:11.774Z,2.03
2023-07-12T23:31:41.132Z,2.53
2023-07-12T23:34:09.411Z,2.00
2023-07-12T23:36:41.722Z,2.23
2023-07-12T23:39:11.520Z,2.07
2023-07-12T23:41:41.061Z,2.43
2023-07-12T23:44:11.534Z,2.20
2023-07-12T23:46:44.809Z,2.50
2023-07-12T23:49:14.753Z,2.20
2023-07-12T23:51:45.321Z,2.00
2023-07-12T23:54:17.260Z,2.20
2023-07-12T23:56:47.984Z,2.23
2023-07-12T23:59:17.687Z,1.97
